createdAt,value
2022-10-11T00:01:04.973Z,102337.50
2022-10-11T00:03:33.314Z,102334.91
2022-10-11T00:06:03.146Z,102339.31
2022-10-11T00:08:31.939Z,102344.78
2022-10-11T00:11:04.499Z,102350.09
2022-10-11T00:13:33.167Z,102354.47
2022-10-11T00:16:02.088Z,102342.03
2022-10-11T00:18:30.514Z,102347.41
2022-10-11T00:21:09.834Z,102347.34
2022-10-11T00:23:38.919Z,102350.06
2022-10-11T00:26:12.136Z,102365.00
2022-10-11T00:28:41.799Z,102356.13
2022-10-11T00:31:11.610Z,102359.63
2022-10-11T00:33:39.943Z,102356.97
2022-10-11T00:36:10.193Z,102353.41
2022-10-11T00:38:38.557Z,102367.59
2022-10-11T00:41:08.315Z,102351.59
2022-10-11T00:43:37.071Z,102363.03
2022-10-11T00:46:27.382Z,102254.44
2022-10-11T00:49:02.449Z,102367.41
2022-10-11T00:51:42.505Z,102366.63
2022-10-11T00:54:15.941Z,102343.53
2022-10-11T00:56:50.088Z,102361.44
2022-10-11T00:59:24.841Z,102364.19
2022-10-11T01:01:53.842Z,102371.22
2022-10-11T01:04:22.365Z,102351.50
2022-10-11T01:06:51.856Z,102368.34
2022-10-11T01:09:22.380Z,102361.06
2022-10-11T01:11:55.333Z,102376.03
2022-10-11T01:15:00.494Z,102373.22
2022-10-11T01:17:37.381Z,102372.28
2022-10-11T01:20:43.767Z,102381.16
2022-10-11T01:24:08.340Z,102386.47
2022-10-11T01:27:26.543Z,102387.28
2022-10-11T01:30:06.676Z,102383.81
2022-10-11T01:32:42.084Z,102381.16
2022-10-11T01:35:18.249Z,102387.31
2022-10-11T01:37:52.454Z,102389.00
2022-10-11T01:40:25.776Z,102390.56
2022-10-11T01:42:56.165Z,102386.16
2022-10-11T01:45:25.536Z,102388.75
2022-10-11T01:48:07.003Z,102390.53
2022-10-11T01:50:41.508Z,102391.59
2022-10-11T01:54:01.341Z,102384.44
2022-10-11T01:56:56.749Z,102386.09
2022-10-11T01:59:42.008Z,102381.63
2022-10-11T02:02:29.047Z,102388.59
2022-10-11T02:05:08.567Z,102388.53
2022-10-11T02:07:46.643Z,102384.94
2022-10-11T02:10:23.879Z,102385.44
2022-10-11T02:12:58.978Z,102379.41
2022-10-11T02:15:31.005Z,102388.28
2022-10-11T02:18:03.853Z,102384.63
2022-10-11T02:20:35.596Z,102376.75
2022-10-11T02:23:12.118Z,102375.72
2022-10-11T02:25:41.597Z,102378.34
2022-10-11T02:28:14.963Z,102378.25
2022-10-11T02:30:45.554Z,102382.66
2022-10-11T02:33:19.092Z,102381.84
2022-10-11T02:35:57.103Z,102379.16
2022-10-11T02:38:29.363Z,102375.63
2022-10-11T02:41:07.346Z,102377.41
2022-10-11T02:43:40.398Z,102371.16
2022-10-11T02:46:10.437Z,102380.06
2022-10-11T02:48:39.831Z,102371.25
2022-10-11T02:51:15.078Z,102378.28
2022-10-11T02:53:43.388Z,102386.09
2022-10-11T02:56:11.623Z,102385.03
2022-10-11T02:58:39.841Z,102388.38
2022-10-11T03:01:08.117Z,102384.72
2022-10-11T03:03:36.445Z,102385.66
2022-10-11T03:06:06.173Z,102393.75
2022-10-11T03:08:36.211Z,102387.44
2022-10-11T03:11:04.512Z,102389.31
2022-10-11T03:13:32.736Z,102400.97
2022-10-11T03:16:07.310Z,102394.69
2022-10-11T03:18:35.790Z,102401.97
2022-10-11T03:21:04.003Z,102399.47
2022-10-11T03:23:32.261Z,102402.09
2022-10-11T03:26:02.218Z,102404.81
2022-10-11T03:28:30.800Z,102394.47
2022-10-11T03:30:59.426Z,102392.88
2022-10-11T03:33:27.712Z,102396.56
2022-10-11T03:35:55.917Z,102400.13
2022-10-11T03:38:24.489Z,102403.75
2022-10-11T03:40:52.799Z,102326.19
2022-10-11T03:43:22.456Z,102403.75
2022-10-11T03:45:50.603Z,102409.00
2022-10-11T03:48:18.891Z,102401.25
2022-10-11T03:50:47.059Z,102412.63
2022-10-11T03:53:15.336Z,102405.56
2022-10-11T03:55:43.601Z,102401.94
2022-10-11T03:58:11.900Z,102406.56
2022-10-11T04:00:41.464Z,102412.78
2022-10-11T04:03:09.743Z,102408.41
2022-10-11T04:05:38.009Z,102413.81
2022-10-11T04:08:11.200Z,102414.72
2022-10-11T04:10:40.835Z,102412.88
2022-10-11T04:13:10.883Z,102416.44
2022-10-11T04:15:41.499Z,102418.19
2022-10-11T04:18:10.740Z,102415.47
2022-10-11T04:20:39.059Z,102418.19
2022-10-11T04:23:07.361Z,102418.31
2022-10-11T04:25:35.597Z,102433.41
2022-10-11T04:28:03.816Z,102433.50
2022-10-11T04:30:32.019Z,102435.25
2022-10-11T04:33:01.654Z,102429.19
2022-10-11T04:35:29.874Z,102394.50
2022-10-11T04:37:58.206Z,102432.00
2022-10-11T04:40:26.411Z,102431.97
2022-10-11T04:42:54.655Z,102430.22
2022-10-11T04:45:23.142Z,102437.34
2022-10-11T04:47:51.455Z,102434.69
2022-10-11T04:50:21.006Z,102440.06
2022-10-11T04:52:49.287Z,102417.78
2022-10-11T04:55:17.713Z,102436.41
2022-10-11T04:57:46.016Z,102443.41
2022-10-11T05:00:15.533Z,102441.72
2022-10-11T05:02:43.809Z,102446.19
2022-10-11T05:05:12.955Z,102441.00
2022-10-11T05:07:42.549Z,102446.31
2022-10-11T05:10:11.520Z,102445.41
2022-10-11T05:12:39.918Z,102450.78
2022-10-11T05:15:10.248Z,102452.53
2022-10-11T05:17:38.498Z,102455.25
2022-10-11T05:20:08.423Z,102462.41
2022-10-11T05:22:36.709Z,102464.22
2022-10-11T05:25:07.226Z,102470.47
2022-10-11T05:27:35.436Z,102455.44
2022-10-11T05:30:03.691Z,102460.78
2022-10-11T05:32:32.301Z,102467.81
2022-10-11T05:35:00.652Z,102470.47
2022-10-11T05:37:28.885Z,102476.59
2022-10-11T05:39:57.054Z,102466.81
2022-10-11T05:42:26.735Z,102473.09
2022-10-11T05:44:54.936Z,102479.19
2022-10-11T05:47:23.142Z,102485.28
2022-10-11T05:49:51.371Z,102483.47
2022-10-11T05:52:21.534Z,102485.25
2022-10-11T05:54:49.902Z,102481.00
2022-10-11T05:57:18.171Z,102487.06
2022-10-11T05:59:47.766Z,102495.84
2022-10-11T06:02:17.036Z,102495.06
2022-10-11T06:04:45.246Z,102489.72
2022-10-11T06:07:13.454Z,102492.34
2022-10-11T06:09:41.723Z,102497.66
2022-10-11T06:12:09.941Z,102497.69
2022-10-11T06:14:38.381Z,102499.53
2022-10-11T06:17:08.146Z,102504.88
2022-10-11T06:19:36.554Z,102502.25
2022-10-11T06:22:04.784Z,102498.66
2022-10-11T06:24:32.995Z,102502.13
2022-10-11T06:27:01.458Z,102506.63
2022-10-11T06:29:29.801Z,102510.22
2022-10-11T06:31:58.447Z,102516.44
2022-10-11T06:34:28.043Z,102518.34
2022-10-11T06:36:56.321Z,102510.38
2022-10-11T06:39:24.503Z,102513.91
2022-10-11T06:41:52.756Z,102518.34
2022-10-11T06:44:20.970Z,102518.44
2022-10-11T06:46:49.190Z,102522.13
2022-10-11T06:49:22.940Z,102526.78
2022-10-11T06:51:52.970Z,102533.19
2022-10-11T06:54:21.337Z,102528.84
2022-10-11T06:56:49.594Z,102534.44
2022-10-11T06:59:17.861Z,102539.03
2022-10-11T07:01:46.110Z,102537.44
2022-10-11T07:04:14.417Z,102553.50
2022-10-11T07:06:43.149Z,102523.44
2022-10-11T07:09:13.026Z,102549.47
2022-10-11T07:11:41.276Z,102552.22
2022-10-11T07:14:10.479Z,102551.44
2022-10-11T07:16:38.924Z,102557.72
2022-10-11T07:19:08.031Z,102548.91
2022-10-11T07:21:36.977Z,102562.28
2022-10-11T07:24:05.889Z,102560.56
2022-10-11T07:26:38.436Z,102560.56
2022-10-11T07:29:08.482Z,102562.31
2022-10-11T07:31:39.378Z,102570.34
2022-10-11T07:34:07.820Z,102577.47
2022-10-11T07:36:36.184Z,102572.97
2022-10-11T07:39:06.897Z,102580.03
2022-10-11T07:41:38.836Z,102583.53
2022-10-11T07:44:08.983Z,102587.03
2022-10-11T07:46:37.198Z,102582.44
2022-10-11T07:49:05.537Z,102571.59
2022-10-11T07:51:34.525Z,102583.91
2022-10-11T07:54:07.293Z,102581.13
2022-10-11T07:56:39.919Z,102595.16
2022-10-11T07:59:08.346Z,102594.97
2022-10-11T08:01:36.616Z,102591.22
2022-10-11T08:04:05.344Z,102592.81
2022-10-11T08:06:33.688Z,102579.22
2022-10-11T08:09:02.759Z,102603.78
2022-10-11T08:11:32.993Z,102603.66
2022-10-11T08:14:05.250Z,102603.72
2022-10-11T08:16:33.654Z,102598.34
2022-10-11T08:19:03.134Z,102607.03
2022-10-11T08:21:31.690Z,102604.97
2022-10-11T08:24:00.002Z,102618.13
2022-10-11T08:26:28.330Z,102617.81
2022-10-11T08:28:56.664Z,102618.50
2022-10-11T08:31:26.587Z,102621.75
2022-10-11T08:33:54.857Z,102624.16
2022-10-11T08:36:23.093Z,102626.47
2022-10-11T08:38:51.491Z,102626.81
2022-10-11T08:41:33.469Z,102631.72
2022-10-11T08:44:21.923Z,102638.06
2022-10-11T08:47:00.554Z,102634.34
2022-10-11T08:49:33.434Z,102645.69
2022-10-11T08:52:05.299Z,102644.53
2022-10-11T08:54:44.591Z,102643.84
2022-10-11T08:57:17.046Z,102650.47
2022-10-11T08:59:51.245Z,102645.69
2022-10-11T09:03:02.797Z,102639.06
2022-10-11T09:05:32.411Z,102648.41
2022-10-11T09:08:09.484Z,102653.53
2022-10-11T09:10:56.618Z,102652.53
2022-10-11T09:13:43.823Z,102650.19
2022-10-11T09:16:24.895Z,102647.44
2022-10-11T09:19:16.435Z,102655.06
2022-10-11T09:21:51.129Z,102651.66
2022-10-11T09:24:38.128Z,102646.66
2022-10-11T09:27:19.467Z,102654.34
2022-10-11T09:29:57.531Z,102653.78
2022-10-11T09:32:32.371Z,102644.25
2022-10-11T09:35:14.681Z,102654.47
2022-10-11T09:37:53.029Z,102652.06
2022-10-11T09:40:37.630Z,102663.78
2022-10-11T09:43:05.974Z,102652.31
2022-10-11T09:45:34.239Z,102647.16
2022-10-11T09:48:06.702Z,102654.56
2022-10-11T09:50:36.518Z,102652.09
2022-10-11T09:53:07.648Z,102655.88
2022-10-11T09:55:39.802Z,102655.25
2022-10-11T09:58:30.451Z,102643.00
2022-10-11T10:01:07.335Z,102646.69
2022-10-11T10:03:38.546Z,102648.69
2022-10-11T10:06:16.213Z,102660.50
2022-10-11T10:08:47.068Z,102651.50
2022-10-11T10:11:16.262Z,102647.94
2022-10-11T10:13:49.754Z,102628.72
2022-10-11T10:16:27.564Z,102657.22
2022-10-11T10:18:59.145Z,102651.94
2022-10-11T10:21:32.898Z,102663.53
2022-10-11T10:24:05.000Z,102645.47
2022-10-11T10:26:33.992Z,102646.44
2022-10-11T10:29:11.143Z,102645.72
2022-10-11T10:34:51.513Z,102647.66
2022-10-11T10:37:28.072Z,102651.31
2022-10-11T10:40:01.661Z,102649.66
2022-10-11T10:42:30.482Z,102640.94
2022-10-11T10:44:59.891Z,102644.41
2022-10-11T10:47:59.627Z,102634.41
2022-10-11T10:50:33.793Z,102644.09
2022-10-11T10:53:19.154Z,102639.34
2022-10-11T10:55:53.985Z,102636.19
2022-10-11T10:58:43.002Z,102626.91
2022-10-11T11:01:18.846Z,102634.59
2022-10-11T11:03:54.108Z,102553.28
2022-10-11T11:06:31.550Z,102627.13
2022-10-11T11:09:17.357Z,102628.78
2022-10-11T11:12:00.355Z,102630.78
2022-10-11T11:14:44.349Z,102627.25
2022-10-11T11:17:25.267Z,102626.91
2022-10-11T11:20:14.887Z,102634.56
2022-10-11T11:22:54.334Z,102626.22
2022-10-11T11:25:40.315Z,102624.78
2022-10-11T11:28:29.571Z,102619.34
2022-10-11T11:31:06.982Z,102604.69
2022-10-11T11:33:48.705Z,102599.50
2022-10-11T11:36:26.082Z,102519.31
2022-10-11T11:38:59.471Z,102620.16
2022-10-11T11:41:37.280Z,102627.50
2022-10-11T11:44:13.116Z,102621.63
2022-10-11T11:46:45.851Z,102616.66
2022-10-11T11:49:20.873Z,102608.22
2022-10-11T11:51:49.408Z,102605.03
2022-10-11T11:54:28.755Z,102606.56
2022-10-11T11:57:09.093Z,102600.41
2022-10-11T11:59:46.107Z,102607.41
2022-10-11T12:02:43.205Z,102590.06
2022-10-11T12:05:15.251Z,102595.38
2022-10-11T12:07:58.015Z,102590.53
2022-10-11T12:10:36.035Z,102588.44
2022-10-11T12:13:20.895Z,102593.03
2022-10-11T12:16:10.678Z,102579.63
2022-10-11T12:18:52.389Z,102587.91
2022-10-11T12:21:26.777Z,102590.59
2022-10-11T12:23:57.324Z,102585.44
2022-10-11T12:26:42.900Z,102587.53
2022-10-11T12:29:48.378Z,102583.13
2022-10-11T12:32:52.453Z,102573.03
2022-10-11T12:36:02.672Z,102580.06
2022-10-11T12:38:37.750Z,102575.72
2022-10-11T12:41:50.777Z,102581.97
2022-10-11T12:44:26.241Z,102557.81
2022-10-11T12:47:25.768Z,102581.00
2022-10-11T12:50:08.220Z,102579.09
2022-10-11T12:52:44.205Z,102568.84
2022-10-11T12:55:35.008Z,102573.00
2022-10-11T12:58:25.420Z,102564.25
2022-10-11T13:01:23.293Z,102569.66
2022-10-11T13:04:02.267Z,102535.31
2022-10-11T13:06:35.053Z,102568.91
2022-10-11T13:09:14.699Z,102571.59
2022-10-11T13:11:50.699Z,102563.22
2022-10-11T13:14:22.959Z,102577.44
2022-10-11T13:17:00.288Z,102566.53
2022-10-11T13:19:31.417Z,102554.78
2022-10-11T13:22:04.057Z,102561.19
2022-10-11T13:24:39.856Z,102554.50
2022-10-11T13:27:08.944Z,102547.88
2022-10-11T13:29:40.867Z,102548.56
2022-10-11T13:32:16.318Z,102549.19
2022-10-11T13:34:49.053Z,102546.38
2022-10-11T13:37:20.680Z,102544.56
2022-10-11T13:39:49.935Z,102539.53
2022-10-11T13:42:20.061Z,102540.34
2022-10-11T13:44:48.891Z,102531.88
2022-10-11T13:47:20.034Z,102535.13
2022-10-11T13:50:03.076Z,102534.09
2022-10-11T13:52:31.352Z,102529.47
2022-10-11T13:55:14.697Z,102533.22
2022-10-11T13:57:46.792Z,102535.75
2022-10-11T14:00:29.953Z,102538.25
2022-10-11T14:03:03.769Z,102530.25
2022-10-11T14:05:37.914Z,102536.50
2022-10-11T14:08:09.363Z,102539.97
2022-10-11T14:10:37.722Z,102546.06
2022-10-11T14:13:23.788Z,102535.16
2022-10-11T14:16:08.336Z,102537.09
2022-10-11T14:18:46.300Z,102534.03
2022-10-11T14:21:55.332Z,102532.31
2022-10-11T14:24:24.097Z,102509.28
2022-10-11T14:26:54.517Z,102528.16
2022-10-11T14:29:26.393Z,102504.47
2022-10-11T14:31:58.519Z,102533.72
2022-10-11T14:34:28.472Z,102524.91
2022-10-11T14:36:58.161Z,102506.28
2022-10-11T14:39:29.092Z,102520.53
2022-10-11T14:41:57.385Z,102514.22
2022-10-11T14:44:25.777Z,102505.41
2022-10-11T14:46:55.211Z,102522.09
2022-10-11T14:49:26.002Z,102525.66
2022-10-11T14:51:59.188Z,102509.41
2022-10-11T14:54:29.547Z,102510.06
2022-10-11T14:57:00.860Z,102516.19
2022-10-11T14:59:34.505Z,102505.28
2022-10-11T15:02:03.241Z,102498.81
2022-10-11T15:04:31.515Z,102507.63
2022-10-11T15:07:01.379Z,102507.44
2022-10-11T15:09:30.338Z,102490.47
2022-10-11T15:11:59.407Z,102508.94
2022-10-11T15:14:27.874Z,102506.47
2022-10-11T15:16:56.470Z,102416.72
2022-10-11T15:19:26.645Z,102495.69
2022-10-11T15:21:54.980Z,102506.97
2022-10-11T15:24:24.739Z,102500.50
2022-10-11T15:26:53.043Z,102475.69
2022-10-11T15:29:24.053Z,102497.50
2022-10-11T15:31:52.473Z,102492.97
2022-10-11T15:34:20.684Z,102494.72
2022-10-11T15:36:49.985Z,102487.41
2022-10-11T15:39:28.035Z,102488.06
2022-10-11T15:41:56.467Z,102491.34
2022-10-11T15:44:24.739Z,102493.38
2022-10-11T15:46:53.299Z,102485.88
2022-10-11T15:49:21.522Z,102501.59
2022-10-11T15:51:49.830Z,102489.56
2022-10-11T15:54:18.394Z,102483.38
2022-10-11T15:56:48.035Z,102489.63
2022-10-11T15:59:16.346Z,102483.38
2022-10-11T16:01:44.777Z,102479.94
2022-10-11T16:04:13.097Z,102496.06
2022-10-11T16:06:42.000Z,102483.47
2022-10-11T16:09:10.352Z,102477.16
2022-10-11T16:11:38.680Z,102485.28
2022-10-11T16:14:08.296Z,102488.06
2022-10-11T16:16:36.548Z,102480.88
2022-10-11T16:19:04.789Z,102483.63
2022-10-11T16:21:33.061Z,102479.22
2022-10-11T16:24:01.388Z,102483.03
2022-10-11T16:26:29.750Z,102481.28
2022-10-11T16:28:58.153Z,102482.22
2022-10-11T16:31:27.994Z,102485.66
2022-10-11T16:33:56.888Z,102483.94
2022-10-11T16:36:36.692Z,102483.94
2022-10-11T16:39:09.016Z,102494.00
2022-10-11T16:41:37.991Z,102495.75
2022-10-11T16:44:06.899Z,102493.97
2022-10-11T16:46:36.566Z,102491.31
2022-10-11T16:49:05.627Z,102464.88
2022-10-11T16:51:34.567Z,102458.78
2022-10-11T16:54:02.846Z,102494.28
2022-10-11T16:56:33.926Z,102480.19
2022-10-11T16:59:04.842Z,102482.09
2022-10-11T17:01:33.150Z,102486.63
2022-10-11T17:04:02.782Z,102481.22
2022-10-11T17:06:31.020Z,102481.22
2022-10-11T17:08:59.470Z,102480.38
2022-10-11T17:11:27.742Z,102478.63
2022-10-11T17:13:56.075Z,102483.09
2022-10-11T17:16:24.960Z,102484.00
2022-10-11T17:18:53.344Z,102486.75
2022-10-11T17:21:23.575Z,102481.34
2022-10-11T17:23:52.145Z,102485.00
2022-10-11T17:26:25.030Z,102477.88
2022-10-11T17:28:54.031Z,102458.47
2022-10-11T17:31:23.039Z,102489.66
2022-10-11T17:33:53.160Z,102490.59
2022-10-11T17:36:30.554Z,102483.56
2022-10-11T17:39:01.039Z,102476.63
2022-10-11T17:41:32.009Z,102481.09
2022-10-11T17:44:01.768Z,102473.97
2022-10-11T17:46:32.771Z,102477.63
2022-10-11T17:49:04.558Z,102467.94
2022-10-11T17:51:35.876Z,102465.28
2022-10-11T17:54:05.063Z,102474.19
2022-10-11T17:56:37.736Z,102475.06
2022-10-11T17:59:07.713Z,102442.19
2022-10-11T18:01:36.212Z,102474.19
2022-10-11T18:04:07.034Z,102465.28
2022-10-11T18:06:41.175Z,102467.06
2022-10-11T18:09:09.521Z,102472.44
2022-10-11T18:11:37.937Z,102468.91
2022-10-11T18:14:06.457Z,102466.22
2022-10-11T18:16:35.848Z,102467.13
2022-10-11T18:19:06.435Z,102466.22
2022-10-11T18:21:37.696Z,102460.91
2022-10-11T18:24:11.345Z,102439.56
2022-10-11T18:26:39.908Z,102381.75
2022-10-11T18:29:08.716Z,102468.91
2022-10-11T18:31:37.226Z,102472.47
2022-10-11T18:34:08.368Z,102467.13
2022-10-11T18:36:38.972Z,102472.47
2022-10-11T18:39:10.543Z,102468.91
2022-10-11T18:41:44.201Z,102462.69
2022-10-11T18:44:15.150Z,102442.16
2022-10-11T18:46:44.238Z,102374.59
2022-10-11T18:49:13.418Z,102460.84
2022-10-11T18:51:44.223Z,102460.84
2022-10-11T18:54:16.765Z,102459.03
2022-10-11T18:56:48.455Z,102458.97
2022-10-11T18:59:16.802Z,102454.53
2022-10-11T19:01:46.199Z,102461.59
2022-10-11T19:04:16.881Z,102458.06
2022-10-11T19:06:48.672Z,102469.59
2022-10-11T19:09:21.741Z,102457.19
2022-10-11T19:11:50.885Z,102458.06
2022-10-11T19:14:21.619Z,102458.06
2022-10-11T19:16:51.280Z,102453.66
2022-10-11T19:19:23.791Z,102437.63
2022-10-11T19:21:54.302Z,102454.56
2022-10-11T19:24:26.523Z,102455.44
2022-10-11T19:27:01.232Z,102453.63
2022-10-11T19:29:31.629Z,102448.31
2022-10-11T19:32:04.868Z,102459.81
2022-10-11T19:34:33.334Z,102454.34
2022-10-11T19:37:04.099Z,102452.56
2022-10-11T19:39:32.520Z,102451.69
2022-10-11T19:42:01.577Z,102450.81
2022-10-11T19:44:29.840Z,102363.59
2022-10-11T19:47:02.780Z,102434.88
2022-10-11T19:49:33.498Z,102456.25
2022-10-11T19:52:03.708Z,102457.16
2022-10-11T19:54:32.976Z,102458.94
2022-10-11T19:57:01.317Z,102457.09
2022-10-11T19:59:29.769Z,102452.56
2022-10-11T20:01:58.006Z,102455.19
2022-10-11T20:07:17.571Z,102454.34
2022-10-11T20:09:45.859Z,102445.41
2022-10-11T20:12:14.063Z,102452.53
2022-10-11T20:14:42.454Z,102454.34
2022-10-11T20:17:10.930Z,102458.56
2022-10-11T20:19:39.200Z,102454.91
2022-10-11T20:22:07.560Z,102455.81
2022-10-11T20:24:37.310Z,102456.72
2022-10-11T20:27:06.849Z,102455.81
2022-10-11T20:29:35.351Z,102457.66
2022-10-11T20:32:03.727Z,102455.03
2022-10-11T20:34:32.016Z,102447.03
2022-10-11T20:37:00.391Z,102428.25
2022-10-11T20:39:28.662Z,102438.94
2022-10-11T20:41:58.234Z,102446.88
2022-10-11T20:44:26.762Z,102445.94
2022-10-11T20:46:55.043Z,102445.88
2022-10-11T20:49:23.395Z,102445.03
2022-10-11T20:51:51.684Z,102429.00
2022-10-11T20:54:19.939Z,102440.56
2022-10-11T20:56:48.219Z,102437.84
2022-10-11T20:59:17.957Z,102440.38
2022-10-11T21:01:49.300Z,102437.63
2022-10-11T21:04:21.084Z,102444.75
2022-10-11T21:06:50.382Z,102447.34
2022-10-11T21:09:19.115Z,102452.66
2022-10-11T21:11:47.576Z,102453.44
2022-10-11T21:14:17.258Z,102448.91
2022-10-11T21:16:45.607Z,102450.69
2022-10-11T21:19:16.977Z,102447.91
2022-10-11T21:21:52.562Z,102447.97
2022-10-11T21:24:22.701Z,102444.34
2022-10-11T21:26:50.940Z,102447.84
2022-10-11T21:29:20.866Z,102442.34
2022-10-11T21:31:49.175Z,102444.97
2022-10-11T21:34:17.853Z,102445.91
2022-10-11T21:36:46.068Z,102445.97
2022-10-11T21:39:14.377Z,102437.00
2022-10-11T21:41:42.997Z,102441.50
2022-10-11T21:44:11.288Z,102439.66
2022-10-11T21:49:29.118Z,102445.97
2022-10-11T21:51:57.523Z,102439.69
2022-10-11T21:54:25.837Z,102444.28
2022-10-11T21:56:54.355Z,102432.88
2022-10-11T21:59:22.633Z,102439.94
2022-10-11T22:01:52.228Z,102435.53
2022-10-11T22:04:20.501Z,102444.28
2022-10-11T22:06:48.713Z,102446.88
2022-10-11T22:09:17.153Z,102437.94
2022-10-11T22:11:45.413Z,102446.94
2022-10-11T22:14:13.891Z,102446.09
2022-10-11T22:16:42.194Z,102443.44
2022-10-11T22:19:11.933Z,102430.94
2022-10-11T22:21:44.855Z,102438.00
2022-10-11T22:24:13.936Z,102433.38
2022-10-11T22:26:42.208Z,102410.22
2022-10-11T22:29:10.477Z,102420.84
2022-10-11T22:31:38.718Z,102425.25
2022-10-11T22:34:07.292Z,102423.56
2022-10-11T22:36:36.860Z,102421.81
2022-10-11T22:39:08.084Z,102426.25
2022-10-11T22:41:36.651Z,102421.69
2022-10-11T22:44:05.655Z,102424.41
2022-10-11T22:46:34.170Z,102418.22
2022-10-11T22:49:02.322Z,102425.41
2022-10-11T22:51:30.556Z,102423.59
2022-10-11T22:54:00.089Z,102421.84
2022-10-11T22:56:28.336Z,102419.13
2022-10-11T22:58:56.507Z,102419.94
2022-10-11T23:01:24.783Z,102420.69
2022-10-11T23:03:53.998Z,102412.72
2022-10-11T23:06:22.326Z,102418.88
2022-10-11T23:08:50.626Z,102421.59
2022-10-11T23:11:20.275Z,102413.63
2022-10-11T23:13:48.496Z,102413.63
2022-10-11T23:16:16.801Z,102408.31
2022-10-11T23:18:45.119Z,102409.31
2022-10-11T23:21:13.395Z,102416.50
2022-10-11T23:23:41.638Z,102406.81
2022-10-11T23:26:13.128Z,102416.47
2022-10-11T23:28:43.184Z,102404.06
2022-10-11T23:31:15.306Z,102403.25
2022-10-11T23:33:44.149Z,102398.94
2022-10-11T23:36:16.196Z,102384.66
2022-10-11T23:38:44.659Z,102397.94
2022-10-11T23:41:12.950Z,102395.22
2022-10-11T23:43:42.733Z,102394.50
2022-10-11T23:46:10.960Z,102391.09
2022-10-11T23:48:39.270Z,102395.59
2022-10-11T23:51:08.196Z,102279.00
2022-10-11T23:53:37.164Z,102383.25
2022-10-11T23:56:06.579Z,102387.72
2022-10-11T23:58:34.891Z,102388.69
